createdAt,value
2022-10-09T00:00:07.093Z,100400.78
2022-10-09T00:02:56.049Z,100395.03
2022-10-09T00:05:40.638Z,100384.66
2022-10-09T00:08:24.427Z,100350.09
2022-10-09T00:11:09.786Z,100374.53
2022-10-09T00:13:55.049Z,100364.28
2022-10-09T00:16:40.559Z,100373.88
2022-10-09T00:19:24.502Z,100378.16
2022-10-09T00:22:08.335Z,100373.47
2022-10-09T00:24:52.141Z,100364.59
2022-10-09T00:27:35.900Z,100360.84
2022-10-09T00:30:19.738Z,100370.13
2022-10-09T00:33:05.365Z,100360.84
2022-10-09T00:35:49.514Z,100354.84
2022-10-09T00:38:33.431Z,100362.13
2022-10-09T00:41:19.168Z,100370.06
2022-10-09T00:44:04.335Z,100362.84
2022-10-09T00:46:52.040Z,100367.03
2022-10-09T00:49:37.804Z,100366.63
2022-10-09T00:52:22.985Z,100357.44
2022-10-09T00:55:09.310Z,100359.50
2022-10-09T00:57:56.176Z,100360.50
2022-10-09T01:00:40.075Z,100331.78
2022-10-09T01:03:23.851Z,100350.59
2022-10-09T01:06:18.311Z,100364.09
2022-10-09T01:09:07.482Z,100308.88
2022-10-09T01:12:00.138Z,100355.13
2022-10-09T01:14:52.936Z,100359.97
2022-10-09T01:17:42.387Z,100365.28
2022-10-09T01:20:40.360Z,100356.22
2022-10-09T01:23:57.964Z,100348.63
2022-10-09T01:27:15.026Z,100353.28
2022-10-09T01:30:01.752Z,100302.66
2022-10-09T01:32:51.091Z,100342.97
2022-10-09T01:35:35.888Z,100353.16
2022-10-09T01:38:21.815Z,100350.09
2022-10-09T01:41:07.375Z,100353.50
2022-10-09T01:43:52.495Z,100349.72
2022-10-09T01:46:36.340Z,100330.59
2022-10-09T01:49:33.287Z,100308.38
2022-10-09T01:52:26.476Z,100302.66
2022-10-09T01:55:21.265Z,100342.06
2022-10-09T01:58:12.239Z,100341.88
2022-10-09T02:01:03.401Z,100341.72
2022-10-09T02:03:51.108Z,100341.72
2022-10-09T02:06:37.002Z,100347.09
2022-10-09T02:09:21.163Z,100350.25
2022-10-09T02:12:09.109Z,100353.84
2022-10-09T02:14:53.182Z,100349.31
2022-10-09T02:17:43.573Z,100323.53
2022-10-09T02:20:32.363Z,100347.53
2022-10-09T02:23:18.217Z,100351.31
2022-10-09T02:26:02.180Z,100349.03
2022-10-09T02:28:46.385Z,100348.66
2022-10-09T02:31:32.143Z,100347.75
2022-10-09T02:34:19.935Z,100356.28
2022-10-09T02:37:03.877Z,100315.94
2022-10-09T02:39:47.655Z,100330.44
2022-10-09T02:42:31.427Z,100355.59
2022-10-09T02:45:15.262Z,100358.41
2022-10-09T02:47:58.931Z,100354.56
2022-10-09T02:50:44.125Z,100364.66
2022-10-09T02:53:27.923Z,100354.81
2022-10-09T02:56:11.741Z,100354.75
2022-10-09T02:58:55.647Z,100349.81
2022-10-09T03:01:39.683Z,100364.66
2022-10-09T03:04:23.540Z,100370.75
2022-10-09T03:07:08.792Z,100323.63
2022-10-09T03:09:52.864Z,100331.16
2022-10-09T03:12:36.741Z,100374.47
2022-10-09T03:15:20.712Z,100350.63
2022-10-09T03:18:04.786Z,100346.34
2022-10-09T03:20:49.235Z,100349.09
2022-10-09T03:23:34.956Z,100349.44
2022-10-09T03:26:21.233Z,100345.84
2022-10-09T03:29:05.286Z,100390.78
2022-10-09T03:31:53.520Z,100352.22
2022-10-09T03:34:37.705Z,100385.84
2022-10-09T03:37:21.617Z,100340.59
2022-10-09T03:40:08.127Z,100315.59
2022-10-09T03:42:52.276Z,100397.78
2022-10-09T03:45:36.643Z,100402.41
2022-10-09T03:48:20.633Z,100357.97
2022-10-09T03:51:04.888Z,100376.25
2022-10-09T03:53:48.890Z,100397.63
2022-10-09T03:56:34.374Z,100407.72
2022-10-09T03:59:18.358Z,100404.72
2022-10-09T04:02:02.283Z,100324.56
2022-10-09T04:04:46.328Z,100401.03
2022-10-09T04:07:30.517Z,100406.91
2022-10-09T04:10:14.517Z,100359.75
2022-10-09T04:12:59.977Z,100358.75
2022-10-09T04:15:51.698Z,100393.44
2022-10-09T04:18:35.716Z,100364.47
2022-10-09T04:21:19.702Z,100351.13
2022-10-09T04:24:03.939Z,100361.59
2022-10-09T04:26:47.847Z,100326.56
2022-10-09T04:29:33.303Z,100392.16
2022-10-09T04:32:17.448Z,100402.91
2022-10-09T04:35:01.409Z,100407.56
2022-10-09T04:37:45.711Z,100370.66
2022-10-09T04:40:29.580Z,100404.63
2022-10-09T04:43:13.599Z,100362.47
2022-10-09T04:45:59.211Z,100392.66
2022-10-09T04:48:45.602Z,100381.56
2022-10-09T04:51:29.746Z,100378.63
2022-10-09T04:54:14.058Z,100412.44
2022-10-09T04:56:58.045Z,100404.38
2022-10-09T04:59:42.340Z,100384.25
2022-10-09T05:02:27.706Z,100422.38
2022-10-09T05:05:13.043Z,100416.22
2022-10-09T05:07:57.013Z,100427.81
2022-10-09T05:10:41.199Z,100379.13
2022-10-09T05:13:25.169Z,100393.44
2022-10-09T05:16:11.397Z,100421.00
2022-10-09T05:18:58.856Z,100392.94
2022-10-09T05:21:42.785Z,100430.28
2022-10-09T05:24:27.059Z,100374.16
2022-10-09T05:27:11.116Z,100423.34
2022-10-09T05:29:55.095Z,100433.13
2022-10-09T05:32:39.085Z,100432.63
2022-10-09T05:35:24.532Z,100429.84
2022-10-09T05:38:08.597Z,100434.44
2022-10-09T05:40:53.691Z,100436.28
2022-10-09T05:43:39.276Z,100439.06
2022-10-09T05:46:25.268Z,100434.06
2022-10-09T05:49:09.350Z,100454.19
2022-10-09T05:51:56.148Z,100446.88
2022-10-09T05:54:40.102Z,100449.22
2022-10-09T05:57:24.237Z,100457.09
2022-10-09T06:00:09.730Z,100451.34
2022-10-09T06:02:56.341Z,100429.63
2022-10-09T06:05:40.536Z,100438.66
2022-10-09T06:08:26.053Z,100427.03
2022-10-09T06:11:12.538Z,100462.25
2022-10-09T06:13:57.595Z,100429.66
2022-10-09T06:16:43.608Z,100460.97
2022-10-09T06:19:27.669Z,100435.72
2022-10-09T06:22:11.721Z,100418.91
2022-10-09T06:24:57.173Z,100446.09
2022-10-09T06:27:41.173Z,100440.59
2022-10-09T06:30:25.159Z,100439.19
2022-10-09T06:33:09.138Z,100438.59
2022-10-09T06:35:56.289Z,100405.88
2022-10-09T06:38:44.098Z,100432.25
2022-10-09T06:41:30.799Z,100451.56
2022-10-09T06:44:17.393Z,100464.03
2022-10-09T06:47:01.566Z,100438.47
2022-10-09T06:49:45.672Z,100483.22
2022-10-09T06:52:29.804Z,100471.78
2022-10-09T06:55:13.932Z,100472.75
2022-10-09T06:57:59.447Z,100473.25
2022-10-09T07:00:43.365Z,100463.31
2022-10-09T07:03:27.372Z,100465.97
2022-10-09T07:06:12.837Z,100467.63
2022-10-09T07:08:59.840Z,100456.47
2022-10-09T07:11:45.944Z,100488.72
2022-10-09T07:14:31.737Z,100492.53
2022-10-09T07:17:15.825Z,100494.50
2022-10-09T07:19:59.960Z,100458.22
2022-10-09T07:22:43.951Z,100420.47
2022-10-09T07:25:27.920Z,100493.03
2022-10-09T07:28:12.045Z,100468.38
2022-10-09T07:30:57.838Z,100496.59
2022-10-09T07:33:42.954Z,100465.56
2022-10-09T07:36:27.080Z,100461.16
2022-10-09T07:39:11.142Z,100493.63
2022-10-09T07:41:55.181Z,100464.06
2022-10-09T07:44:39.179Z,100460.22
2022-10-09T07:47:24.624Z,100459.44
2022-10-09T07:50:09.453Z,100456.56
2022-10-09T07:52:53.516Z,100454.66
2022-10-09T07:55:37.686Z,100438.97
2022-10-09T07:58:21.596Z,100440.00
2022-10-09T08:01:07.240Z,100480.78
2022-10-09T08:03:53.081Z,100445.47
2022-10-09T08:06:37.615Z,100416.69
2022-10-09T08:09:21.610Z,100442.66
2022-10-09T08:12:05.833Z,100487.44
2022-10-09T08:14:49.888Z,100475.00
2022-10-09T08:17:34.026Z,100450.66
2022-10-09T08:20:19.426Z,100452.84
2022-10-09T08:23:03.552Z,100443.00
2022-10-09T08:25:47.985Z,100472.16
2022-10-09T08:28:32.154Z,100471.09
2022-10-09T08:31:18.290Z,100430.97
2022-10-09T08:34:04.666Z,100467.63
2022-10-09T08:36:50.452Z,100474.50
2022-10-09T08:39:34.360Z,100436.56
2022-10-09T08:42:32.582Z,100454.41
2022-10-09T08:45:19.164Z,100452.03
2022-10-09T08:48:07.431Z,100448.44
2022-10-09T08:50:53.698Z,100423.88
2022-10-09T08:53:44.189Z,100420.47
2022-10-09T08:56:28.855Z,100461.78
2022-10-09T08:59:13.674Z,100422.19
2022-10-09T09:02:09.047Z,100417.09
2022-10-09T09:05:05.223Z,100449.28
2022-10-09T09:07:57.580Z,100459.88
2022-10-09T09:10:50.215Z,100455.94
2022-10-09T09:13:50.589Z,100453.25
2022-10-09T09:16:44.743Z,100452.97
2022-10-09T09:19:47.395Z,100410.78
2022-10-09T09:22:33.375Z,100436.72
2022-10-09T09:25:23.579Z,100446.09
2022-10-09T09:28:25.796Z,100450.78
2022-10-09T09:31:17.586Z,100450.72
2022-10-09T09:34:06.830Z,100407.97
2022-10-09T09:36:54.162Z,100441.84
2022-10-09T09:42:43.272Z,100435.13
2022-10-09T09:45:29.734Z,100401.19
2022-10-09T09:48:18.618Z,100407.06
2022-10-09T09:51:27.449Z,100430.16
2022-10-09T09:54:16.413Z,100418.41
2022-10-09T09:57:13.942Z,100445.81
2022-10-09T10:00:19.340Z,100434.06
2022-10-09T10:03:12.195Z,100436.63
2022-10-09T10:05:56.029Z,100423.97
2022-10-09T10:08:39.878Z,100440.06
2022-10-09T10:11:23.621Z,100444.63
2022-10-09T10:14:08.671Z,100439.81
2022-10-09T10:16:53.979Z,100415.94
2022-10-09T10:19:39.673Z,100442.16
2022-10-09T10:22:26.517Z,100427.97
2022-10-09T10:25:16.910Z,100430.81
2022-10-09T10:28:12.151Z,100443.72
2022-10-09T10:30:58.490Z,100430.28
2022-10-09T10:33:45.158Z,100428.13
2022-10-09T10:36:30.564Z,100337.94
2022-10-09T10:39:22.646Z,100410.84
2022-10-09T10:42:13.316Z,100422.88
2022-10-09T10:45:03.995Z,100417.09
2022-10-09T10:47:52.640Z,100410.53
2022-10-09T10:50:44.315Z,100415.94
2022-10-09T10:53:42.699Z,100413.31
2022-10-09T10:56:31.967Z,100418.09
2022-10-09T10:59:31.331Z,100416.34
2022-10-09T11:02:43.717Z,100406.78
2022-10-09T11:05:37.621Z,100413.19
2022-10-09T11:08:44.907Z,100401.94
2022-10-09T11:11:37.429Z,100401.84
2022-10-09T11:14:38.422Z,100398.47
2022-10-09T11:17:32.957Z,100404.25
2022-10-09T11:20:37.179Z,100399.41
2022-10-09T11:23:32.914Z,100396.25
2022-10-09T11:26:26.162Z,100395.81
2022-10-09T11:29:16.718Z,100387.28
2022-10-09T11:32:05.470Z,100389.00
2022-10-09T11:34:56.130Z,100396.41
2022-10-09T11:37:43.354Z,100401.00
2022-10-09T11:40:33.484Z,100390.28
2022-10-09T11:43:42.092Z,100384.34
2022-10-09T11:46:36.110Z,100395.56
2022-10-09T11:49:26.585Z,100396.31
2022-10-09T11:52:20.187Z,100408.09
2022-10-09T11:55:18.223Z,100403.28
2022-10-09T11:58:22.557Z,100397.81
2022-10-09T12:01:24.862Z,100397.41
2022-10-09T12:04:32.351Z,100399.63
2022-10-09T12:07:32.343Z,100389.59
2022-10-09T12:10:32.922Z,100396.03
2022-10-09T12:13:32.181Z,100404.38
2022-10-09T12:16:37.902Z,100286.25
2022-10-09T12:19:25.269Z,100403.19
2022-10-09T12:22:16.600Z,100366.44
2022-10-09T12:25:07.743Z,100386.41
2022-10-09T12:27:55.719Z,100401.13
2022-10-09T12:30:47.542Z,100397.53
2022-10-09T12:33:38.006Z,100408.50
2022-10-09T12:36:25.656Z,100414.91
2022-10-09T12:39:20.071Z,100410.91
2022-10-09T12:42:04.093Z,100425.91
2022-10-09T12:44:49.870Z,100410.00
2022-10-09T12:47:36.440Z,100415.06
2022-10-09T12:50:25.702Z,100408.56
2022-10-09T12:53:15.668Z,100419.16
2022-10-09T12:56:01.326Z,100416.88
2022-10-09T12:58:45.342Z,100418.72
2022-10-09T13:01:29.815Z,100425.00
2022-10-09T13:04:27.652Z,100426.97
2022-10-09T13:07:21.099Z,100417.16
2022-10-09T13:10:09.520Z,100422.75
2022-10-09T13:12:57.029Z,100424.94
2022-10-09T13:15:40.783Z,100423.81
2022-10-09T13:18:24.821Z,100394.38
2022-10-09T13:21:24.750Z,100406.22
2022-10-09T13:24:12.033Z,100421.72
2022-10-09T13:26:55.868Z,100434.72
2022-10-09T13:29:40.233Z,100398.88
2022-10-09T13:32:25.226Z,100422.25
2022-10-09T13:35:09.667Z,100400.38
2022-10-09T13:37:53.700Z,100423.16
2022-10-09T13:40:40.437Z,100437.66
2022-10-09T13:43:27.433Z,100428.34
2022-10-09T13:46:11.415Z,100428.88
2022-10-09T13:48:55.189Z,100411.94
2022-10-09T13:51:38.904Z,100417.19
2022-10-09T13:54:22.763Z,100425.47
2022-10-09T13:57:08.283Z,100429.34
2022-10-09T13:59:51.972Z,100433.13
2022-10-09T14:02:36.060Z,100434.53
2022-10-09T14:05:19.987Z,100432.88
2022-10-09T14:08:03.827Z,100435.75
2022-10-09T14:10:47.660Z,100440.34
2022-10-09T14:13:33.422Z,100426.28
2022-10-09T14:16:17.259Z,100435.34
2022-10-09T14:19:03.451Z,100426.09
2022-10-09T14:21:47.928Z,100435.19
2022-10-09T14:24:31.688Z,100437.06
2022-10-09T14:27:15.528Z,100440.28
2022-10-09T14:30:00.703Z,100443.00
2022-10-09T14:32:44.831Z,100449.41
2022-10-09T14:35:28.672Z,100452.50
2022-10-09T14:38:12.462Z,100443.97
2022-10-09T14:40:57.732Z,100453.81
2022-10-09T14:43:41.771Z,100445.19
2022-10-09T14:46:28.733Z,100439.41
2022-10-09T14:49:12.634Z,100457.72
2022-10-09T14:51:56.591Z,100445.59
2022-10-09T14:54:41.075Z,100422.84
2022-10-09T14:57:24.877Z,100439.41
2022-10-09T15:00:09.909Z,100458.94
2022-10-09T15:02:57.570Z,100462.31
2022-10-09T15:05:43.484Z,100445.72
2022-10-09T15:08:27.465Z,100462.09
2022-10-09T15:11:13.545Z,100475.88
2022-10-09T15:13:58.037Z,100449.59
2022-10-09T15:16:41.945Z,100454.13
2022-10-09T15:19:27.160Z,100480.88
2022-10-09T15:22:10.996Z,100486.66
2022-10-09T15:24:54.763Z,100490.63
2022-10-09T15:27:38.490Z,100492.31
2022-10-09T15:30:22.175Z,100492.59
2022-10-09T15:33:05.909Z,100498.53
2022-10-09T15:35:51.143Z,100501.25
2022-10-09T15:38:35.215Z,100493.97
2022-10-09T15:41:23.735Z,100509.94
2022-10-09T15:44:13.975Z,100516.91
2022-10-09T15:46:57.845Z,100506.59
2022-10-09T15:49:41.707Z,100515.06
2022-10-09T15:52:27.096Z,100528.31
2022-10-09T15:55:10.940Z,100526.84
2022-10-09T15:57:54.788Z,100532.97
2022-10-09T16:00:39.534Z,100537.94
2022-10-09T16:03:23.203Z,100496.06
2022-10-09T16:06:10.762Z,100535.72
2022-10-09T16:08:59.288Z,100552.56
2022-10-09T16:11:43.084Z,100554.25
2022-10-09T16:14:29.555Z,100548.03
2022-10-09T16:17:13.354Z,100564.38
2022-10-09T16:19:57.058Z,100563.28
2022-10-09T16:22:40.845Z,100561.72
2022-10-09T16:25:26.083Z,100561.81
2022-10-09T16:28:11.887Z,100574.13
2022-10-09T16:30:56.327Z,100579.25
2022-10-09T16:33:40.212Z,100583.22
2022-10-09T16:36:24.382Z,100578.16
2022-10-09T16:39:08.226Z,100590.09
2022-10-09T16:41:53.382Z,100587.25
2022-10-09T16:44:37.060Z,100578.50
2022-10-09T16:47:20.761Z,100590.44
2022-10-09T16:50:04.965Z,100556.34
2022-10-09T16:52:49.150Z,100560.78
2022-10-09T16:55:33.177Z,100567.94
2022-10-09T16:58:18.535Z,100598.81
2022-10-09T17:01:07.395Z,100587.97
2022-10-09T17:03:55.066Z,100605.09
2022-10-09T17:06:40.878Z,100606.66
2022-10-09T17:09:24.762Z,100605.59
2022-10-09T17:12:11.124Z,100603.41
2022-10-09T17:14:57.611Z,100614.59
2022-10-09T17:17:41.565Z,100587.63
2022-10-09T17:20:25.556Z,100604.31
2022-10-09T17:23:09.575Z,100566.34
2022-10-09T17:25:53.521Z,100591.88
2022-10-09T17:28:37.300Z,100615.06
2022-10-09T17:31:24.691Z,100609.47
2022-10-09T17:34:08.558Z,100624.72
2022-10-09T17:36:52.387Z,100627.19
2022-10-09T17:39:36.260Z,100622.91
2022-10-09T17:42:20.108Z,100633.66
2022-10-09T17:45:03.843Z,100634.09
2022-10-09T17:47:49.332Z,100638.88
2022-10-09T17:50:33.916Z,100646.16
2022-10-09T17:53:18.237Z,100646.31
2022-10-09T17:56:05.030Z,100641.63
2022-10-09T17:58:50.177Z,100653.84
2022-10-09T18:01:34.099Z,100655.97
2022-10-09T18:04:19.402Z,100659.31
2022-10-09T18:07:03.171Z,100663.44
2022-10-09T18:09:46.941Z,100665.28
2022-10-09T18:12:30.773Z,100670.38
2022-10-09T18:15:14.890Z,100663.03
2022-10-09T18:17:58.725Z,100669.03
2022-10-09T18:20:43.939Z,100665.41
2022-10-09T18:23:27.734Z,100676.63
2022-10-09T18:26:13.313Z,100678.34
2022-10-09T18:28:57.134Z,100663.00
2022-10-09T18:31:41.218Z,100682.28
2022-10-09T18:34:24.962Z,100679.09
2022-10-09T18:37:10.112Z,100683.25
2022-10-09T18:39:53.928Z,100682.19
2022-10-09T18:42:37.852Z,100678.03
2022-10-09T18:45:21.691Z,100664.91
2022-10-09T18:48:08.511Z,100703.28
2022-10-09T18:50:52.427Z,100698.28
2022-10-09T18:53:39.403Z,100705.06
2022-10-09T18:56:23.823Z,100713.25
2022-10-09T18:59:11.872Z,100708.28
2022-10-09T19:01:55.667Z,100716.47
2022-10-09T19:04:39.409Z,100710.00
2022-10-09T19:07:23.263Z,100714.81
2022-10-09T19:10:09.132Z,100716.53
2022-10-09T19:12:54.428Z,100719.63
2022-10-09T19:15:38.308Z,100720.88
2022-10-09T19:18:22.825Z,100716.13
2022-10-09T19:21:07.064Z,100713.38
2022-10-09T19:23:51.888Z,100725.34
2022-10-09T19:26:37.035Z,100722.88
2022-10-09T19:29:20.735Z,100728.78
2022-10-09T19:32:04.436Z,100729.91
2022-10-09T19:34:48.145Z,100719.63
2022-10-09T19:37:31.918Z,100737.13
2022-10-09T19:40:15.952Z,100728.59
2022-10-09T19:43:01.120Z,100739.31
2022-10-09T19:45:45.220Z,100748.34
2022-10-09T19:48:29.027Z,100731.53
2022-10-09T19:51:14.881Z,100748.44
2022-10-09T19:53:59.225Z,100710.00
2022-10-09T19:56:43.323Z,100744.88
2022-10-09T19:59:29.314Z,100743.91
2022-10-09T20:02:13.306Z,100717.38
2022-10-09T20:04:57.252Z,100753.22
2022-10-09T20:07:41.268Z,100710.94
2022-10-09T20:10:25.169Z,100750.56
2022-10-09T20:13:09.000Z,100725.50
2022-10-09T20:15:54.179Z,100747.31
2022-10-09T20:18:39.460Z,100761.88
2022-10-09T20:21:23.608Z,100760.22
2022-10-09T20:24:08.366Z,100753.38
2022-10-09T20:26:52.197Z,100761.69
2022-10-09T20:29:36.053Z,100756.81
2022-10-09T20:32:21.185Z,100753.03
2022-10-09T20:35:05.834Z,100766.84
2022-10-09T20:37:49.773Z,100756.25
2022-10-09T20:40:34.202Z,100713.47
2022-10-09T20:43:18.129Z,100763.63
2022-10-09T20:46:07.126Z,100763.84
2022-10-09T20:48:53.926Z,100731.72
2022-10-09T20:51:39.043Z,100778.31
2022-10-09T20:54:23.431Z,100776.22
2022-10-09T20:57:07.405Z,100718.00
2022-10-09T20:59:51.500Z,100763.94
2022-10-09T21:02:35.440Z,100727.91
2022-10-09T21:05:20.854Z,100737.91
2022-10-09T21:08:04.765Z,100750.44
2022-10-09T21:10:50.554Z,100755.50
2022-10-09T21:13:35.350Z,100781.00
2022-10-09T21:16:21.483Z,100746.59
2022-10-09T21:19:08.010Z,100772.81
2022-10-09T21:21:53.448Z,100743.56
2022-10-09T21:24:38.210Z,100744.09
2022-10-09T21:27:22.016Z,100785.44
2022-10-09T21:30:06.562Z,100780.97
2022-10-09T21:32:50.541Z,100780.91
2022-10-09T21:35:39.859Z,100784.09
2022-10-09T21:38:25.117Z,100786.88
2022-10-09T21:41:08.848Z,100768.88
2022-10-09T21:43:52.600Z,100790.38
2022-10-09T21:46:37.722Z,100772.03
2022-10-09T21:49:23.968Z,100800.94
2022-10-09T21:52:07.744Z,100797.94
2022-10-09T21:54:52.987Z,100807.75
2022-10-09T21:57:36.858Z,100783.81
2022-10-09T22:00:21.108Z,100797.41
2022-10-09T22:03:05.260Z,100807.47
2022-10-09T22:05:49.247Z,100766.13
2022-10-09T22:08:33.197Z,100809.34
2022-10-09T22:11:18.528Z,100801.78
2022-10-09T22:14:02.300Z,100813.75
2022-10-09T22:16:46.133Z,100810.50
2022-10-09T22:19:29.907Z,100812.97
2022-10-09T22:22:13.728Z,100799.38
2022-10-09T22:24:59.344Z,100822.88
2022-10-09T22:27:44.493Z,100811.06
2022-10-09T22:30:28.238Z,100830.84
2022-10-09T22:33:12.231Z,100838.53
2022-10-09T22:36:03.620Z,100827.44
2022-10-09T22:38:47.487Z,100823.75
2022-10-09T22:41:33.071Z,100832.19
2022-10-09T22:44:18.263Z,100841.59
2022-10-09T22:47:02.061Z,100857.13
2022-10-09T22:49:46.235Z,100856.03
2022-10-09T22:52:30.289Z,100824.16
2022-10-09T22:55:14.474Z,100838.94
2022-10-09T22:57:58.470Z,100789.44
2022-10-09T23:00:43.888Z,100790.25
2022-10-09T23:03:27.943Z,100882.53
2022-10-09T23:06:14.355Z,100871.72
2022-10-09T23:08:58.525Z,100836.06
2022-10-09T23:11:42.541Z,100880.97
2022-10-09T23:14:27.573Z,100882.50
2022-10-09T23:17:12.668Z,100882.53
2022-10-09T23:19:56.345Z,100878.50
2022-10-09T23:22:40.041Z,100882.50
2022-10-09T23:25:23.779Z,100891.41
2022-10-09T23:28:07.718Z,100898.41
2022-10-09T23:30:51.640Z,100900.50
2022-10-09T23:33:38.968Z,100904.06
2022-10-09T23:36:25.245Z,100907.63
2022-10-09T23:39:09.324Z,100909.84
2022-10-09T23:41:53.138Z,100912.00
2022-10-09T23:44:36.950Z,100885.53
2022-10-09T23:47:20.726Z,100912.47
2022-10-09T23:50:07.356Z,100919.06
2022-10-09T23:52:51.510Z,100926.41
2022-10-09T23:55:35.512Z,100919.81
2022-10-09T23:58:21.000Z,100918.44
